Terminal Aerodrome Forecast
Issued by NWS

Home | Current Version | Previous Version | Text Only | Print | Product List | Glossary On
Versions: 1 2 3 4 5 6 7 8 9 10 11 12 13 14 15
000
FTUS45 KTFX 291740
TAFBZN
TAF
KBZN 291740Z 2918/3018 32007KT P6SM SCT100
     FM300200 19005KT P6SM SCT050 BKN090 PROB30 3006/3012 -SHRA
      BKN050
     FM301400 29008KT P6SM VCSH BKN030 OVC050=

USA.gov is the U.S. government's official web portal to all federal, state and local government web resources and services.